Time;durP1;ratioP1;P1;durP2;ratioP2;P2;SDS_P1;SDS_P2;PMS_P1;PMS_P2;Temp;Humidity;BMP_temperature;BMP_pressure;BME280_temperature;BME280_humidity;BME280_pressure;Samples;Min_cycle;Max_cycle;Signal;HPM_P1;HPM_P2
2022/04/11 00:00:49;;;;;;;19.42;6.88;;;;;;;;;;5050941;28;20044;-85
2022/04/11 00:03:15;;;;;;;11.02;6.00;;;;;;;;;;5065958;28;20406;-84
2022/04/11 00:05:41;;;;;;;15.18;6.53;;;;;;;;;;5066418;28;20042;-84
2022/04/11 00:08:08;;;;;;;17.00;7.32;;;;;;;;;;5061879;28;20093;-85
2022/04/11 00:10:35;;;;;;;12.48;6.65;;;;;;;;;;5064060;28;20104;-84
2022/04/11 00:13:05;;;;;;;12.63;6.13;;;;;;;;;;5065510;28;20089;-84
2022/04/11 00:15:33;;;;;;;14.23;6.15;;;;;;;;;;5065689;28;20056;-84
2022/04/11 00:18:01;;;;;;;12.77;5.97;;;;;;;;;;5044737;28;20027;-84
2022/04/11 00:20:27;;;;;;;13.27;5.75;;;;;;;;;;5062844;28;20031;-84
2022/04/11 00:22:53;;;;;;;13.25;5.85;;;;;;;;;;5062961;28;20066;-84
2022/04/11 00:25:19;;;;;;;14.27;5.97;;;;;;;;;;5067517;28;20115;-86
2022/04/11 00:27:45;;;;;;;11.25;6.07;;;;;;;;;;5062966;28;20032;-85
2022/04/11 00:30:13;;;;;;;13.02;6.68;;;;;;;;;;5050758;28;20035;-85
2022/04/11 00:32:43;;;;;;;14.27;6.47;;;;;;;;;;5058436;28;20032;-85
2022/04/11 00:35:10;;;;;;;17.60;7.70;;;;;;;;;;5058144;28;20080;-84
2022/04/11 00:37:37;;;;;;;15.10;7.20;;;;;;;;;;5061401;28;20275;-84
2022/04/11 00:40:04;;;;;;;15.35;6.70;;;;;;;;;;5048516;28;20021;-84
2022/04/11 00:42:31;;;;;;;13.57;7.13;;;;;;;;;;5058841;28;20029;-85
2022/04/11 00:44:57;;;;;;;14.38;7.30;;;;;;;;;;5064918;28;20036;-84
2022/04/11 00:47:25;;;;;;;17.00;6.35;;;;;;;;;;5065277;28;20052;-85
2022/04/11 00:49:54;;;;;;;12.32;5.68;;;;;;;;;;5067555;28;20063;-85
2022/04/11 00:52:21;;;;;;;13.65;6.57;;;;;;;;;;5062716;28;20481;-83
2022/04/11 00:54:48;;;;;;;11.90;6.15;;;;;;;;;;5059165;28;20029;-85
2022/04/11 00:57:15;;;;;;;9.38;6.10;;;;;;;;;;5060706;28;20446;-85
2022/04/11 00:59:41;;;;;;;12.00;6.03;;;;;;;;;;5062920;28;20055;-84
2022/04/11 01:02:07;;;;;;;14.07;5.95;;;;;;;;;;5046716;28;20044;-86
2022/04/11 01:04:34;;;;;;;13.82;6.20;;;;;;;;;;5035339;28;20528;-84
2022/04/11 01:07:00;;;;;;;17.70;7.47;;;;;;;;;;5043933;28;20033;-84
2022/04/11 01:09:27;;;;;;;14.27;7.25;;;;;;;;;;5066417;28;20055;-84
2022/04/11 01:11:53;;;;;;;11.40;6.97;;;;;;;;;;5057386;28;20033;-85
2022/04/11 01:14:22;;;;;;;11.60;6.70;;;;;;;;;;5064297;28;20034;-85
2022/04/11 01:16:52;;;;;;;13.00;6.95;;;;;;;;;;5049006;28;20079;-84
2022/04/11 01:19:20;;;;;;;16.52;7.47;;;;;;;;;;5067805;28;20055;-84
2022/04/11 01:21:46;;;;;;;18.08;8.20;;;;;;;;;;5060542;28;20055;-84
2022/04/11 01:24:13;;;;;;;16.88;7.80;;;;;;;;;;5050671;28;20082;-85
2022/04/11 01:26:39;;;;;;;17.30;7.68;;;;;;;;;;5054457;28;20556;-84
2022/04/11 01:29:05;;;;;;;17.67;8.20;;;;;;;;;;5064054;28;20120;-85
2022/04/11 01:31:32;;;;;;;13.45;7.72;;;;;;;;;;5058513;28;20032;-83
2022/04/11 01:33:58;;;;;;;12.00;7.80;;;;;;;;;;5061278;28;20624;-84
2022/04/11 01:36:24;;;;;;;19.60;8.30;;;;;;;;;;5063015;28;20025;-84
2022/04/11 01:38:50;;;;;;;19.67;9.07;;;;;;;;;;5035221;28;20056;-85
2022/04/11 01:41:16;;;;;;;20.02;9.43;;;;;;;;;;5048942;28;20092;-85
2022/04/11 01:43:45;;;;;;;16.50;9.02;;;;;;;;;;5046937;28;20047;-85
2022/04/11 01:46:11;;;;;;;14.05;9.65;;;;;;;;;;5038799;28;20074;-84
2022/04/11 01:48:37;;;;;;;16.50;9.48;;;;;;;;;;5044305;28;20024;-85
2022/04/11 01:51:03;;;;;;;20.35;8.73;;;;;;;;;;5067741;28;20112;-84
2022/04/11 01:53:29;;;;;;;15.23;9.18;;;;;;;;;;5075325;28;20036;-84
2022/04/11 01:55:55;;;;;;;22.20;8.68;;;;;;;;;;5064808;28;20033;-84
2022/04/11 01:58:21;;;;;;;20.10;8.88;;;;;;;;;;5065373;28;20016;-83
2022/04/11 02:00:47;;;;;;;12.63;7.90;;;;;;;;;;5075642;28;20080;-84
2022/04/11 02:03:13;;;;;;;14.02;8.60;;;;;;;;;;5074509;28;20075;-85
2022/04/11 02:05:40;;;;;;;14.68;8.10;;;;;;;;;;5073132;28;20036;-85
2022/04/11 02:08:07;;;;;;;17.67;9.18;;;;;;;;;;5074747;28;20055;-85
2022/04/11 02:10:36;;;;;;;16.33;9.02;;;;;;;;;;5068472;28;20044;-83
2022/04/11 02:13:03;;;;;;;15.15;8.85;;;;;;;;;;5066671;28;20037;-85
2022/04/11 02:15:30;;;;;;;15.15;9.52;;;;;;;;;;5067861;28;20032;-84
2022/04/11 02:17:56;;;;;;;20.80;9.40;;;;;;;;;;5076836;28;20548;-85
2022/04/11 02:20:23;;;;;;;15.43;9.38;;;;;;;;;;5069147;28;20099;-85
2022/04/11 02:22:50;;;;;;;17.60;9.20;;;;;;;;;;5070147;28;20020;-84
2022/04/11 02:25:20;;;;;;;19.02;9.27;;;;;;;;;;5074950;28;20055;-85
2022/04/11 02:27:46;;;;;;;17.38;9.65;;;;;;;;;;5046893;28;20029;-85
2022/04/11 02:30:14;;;;;;;15.27;9.63;;;;;;;;;;5066890;28;20029;-84
2022/04/11 02:32:40;;;;;;;20.02;10.48;;;;;;;;;;5066561;28;20029;-84
2022/04/11 02:35:06;;;;;;;16.58;9.60;;;;;;;;;;5065412;28;20430;-84
2022/04/11 02:37:33;;;;;;;19.52;9.65;;;;;;;;;;5049902;28;20033;-84
2022/04/11 02:39:59;;;;;;;23.63;10.07;;;;;;;;;;5054848;28;20025;-85
2022/04/11 02:42:26;;;;;;;17.15;10.63;;;;;;;;;;5070089;28;20029;-85
2022/04/11 02:44:52;;;;;;;20.58;9.45;;;;;;;;;;5071232;28;20035;-84
2022/04/11 02:47:18;;;;;;;16.33;10.15;;;;;;;;;;5052120;28;20017;-85
2022/04/11 02:49:45;;;;;;;18.55;10.32;;;;;;;;;;5030348;28;20029;-84
2022/04/11 02:52:11;;;;;;;17.63;10.73;;;;;;;;;;5034342;28;20033;-85
2022/04/11 02:54:37;;;;;;;18.25;10.38;;;;;;;;;;5048805;28;20033;-85
2022/04/11 02:57:04;;;;;;;19.90;10.77;;;;;;;;;;5035403;28;20165;-84
2022/04/11 02:59:32;;;;;;;16.58;10.65;;;;;;;;;;5048281;28;20495;-84
2022/04/11 03:01:58;;;;;;;23.52;11.77;;;;;;;;;;5052904;28;20036;-84
2022/04/11 03:04:24;;;;;;;20.05;12.23;;;;;;;;;;5037357;28;20139;-84
2022/04/11 03:06:50;;;;;;;18.50;11.80;;;;;;;;;;5050215;28;20029;-84
2022/04/11 03:09:17;;;;;;;18.95;11.95;;;;;;;;;;5054806;28;20052;-83
2022/04/11 03:11:43;;;;;;;21.20;12.20;;;;;;;;;;5039344;28;20080;-84
2022/04/11 03:14:09;;;;;;;20.88;12.13;;;;;;;;;;5057976;28;20041;-84
2022/04/11 03:16:54;;;;;;;20.60;12.75;;;;;;;;;;5030950;28;20446;-85
2022/04/11 03:19:20;;;;;;;20.63;12.85;;;;;;;;;;5052430;28;20056;-85
2022/04/11 03:21:46;;;;;;;21.63;12.57;;;;;;;;;;5051081;28;20033;-85
2022/04/11 03:24:12;;;;;;;21.25;12.88;;;;;;;;;;5052030;28;20494;-85
2022/04/11 03:26:38;;;;;;;20.08;11.85;;;;;;;;;;5056584;28;20502;-84
2022/04/11 03:29:04;;;;;;;19.17;13.10;;;;;;;;;;5053232;28;20009;-84
2022/04/11 03:31:31;;;;;;;23.02;13.35;;;;;;;;;;5052851;28;20063;-85
2022/04/11 03:33:57;;;;;;;20.13;13.52;;;;;;;;;;5047743;28;20069;-85
2022/04/11 03:36:24;;;;;;;24.92;13.02;;;;;;;;;;5051758;28;20120;-84
2022/04/11 03:38:50;;;;;;;25.58;13.93;;;;;;;;;;5029970;28;20037;-84
2022/04/11 03:41:35;;;;;;;21.52;13.55;;;;;;;;;;5052040;28;20051;-85
2022/04/11 03:44:01;;;;;;;25.38;14.18;;;;;;;;;;5046598;28;20479;-85
2022/04/11 03:46:29;;;;;;;23.58;13.98;;;;;;;;;;5048481;28;20049;-85
2022/04/11 03:48:56;;;;;;;25.60;14.77;;;;;;;;;;5047919;28;20031;-84
2022/04/11 03:51:22;;;;;;;25.08;14.90;;;;;;;;;;5047158;28;20026;-84
2022/04/11 03:53:50;;;;;;;24.67;14.10;;;;;;;;;;5044064;28;20049;-83
2022/04/11 03:56:17;;;;;;;21.38;14.50;;;;;;;;;;5030203;28;20068;-85
2022/04/11 03:58:44;;;;;;;22.10;14.60;;;;;;;;;;5031866;28;20041;-84
2022/04/11 04:01:11;;;;;;;27.00;15.25;;;;;;;;;;5049819;28;20033;-84
2022/04/11 04:03:37;;;;;;;36.58;15.75;;;;;;;;;;5050658;28;20127;-84
2022/04/11 04:06:04;;;;;;;22.65;15.13;;;;;;;;;;5027844;28;20033;-84
2022/04/11 04:08:30;;;;;;;23.65;14.63;;;;;;;;;;5056108;28;20029;-84
2022/04/11 04:10:56;;;;;;;22.75;14.13;;;;;;;;;;5050798;28;20026;-83
2022/04/11 04:13:22;;;;;;;25.08;14.73;;;;;;;;;;5030909;28;20343;-84
2022/04/11 04:15:48;;;;;;;25.67;14.80;;;;;;;;;;5048968;28;20044;-84
2022/04/11 04:18:14;;;;;;;27.90;14.93;;;;;;;;;;5027865;28;20060;-84
2022/04/11 04:20:40;;;;;;;23.00;14.88;;;;;;;;;;5030425;28;20124;-83
2022/04/11 04:23:06;;;;;;;23.20;14.82;;;;;;;;;;5044305;28;20050;-85
2022/04/11 04:25:36;;;;;;;24.38;14.52;;;;;;;;;;5039579;28;20113;-83
2022/04/11 04:28:02;;;;;;;27.13;15.38;;;;;;;;;;5042771;28;20046;-83
2022/04/11 04:30:28;;;;;;;23.75;14.85;;;;;;;;;;5043324;28;20199;-84
2022/04/11 04:32:55;;;;;;;33.85;14.38;;;;;;;;;;5046940;28;20072;-85
2022/04/11 04:35:39;;;;;;;31.17;14.43;;;;;;;;;;5053561;28;20037;-85
2022/04/11 04:38:06;;;;;;;33.17;20.80;;;;;;;;;;5045571;28;20033;-85
2022/04/11 04:43:35;;;;;;;23.50;12.63;;;;;;;;;;5045478;28;20095;-83
2022/04/11 04:46:01;;;;;;;23.27;14.35;;;;;;;;;;5036745;28;20053;-83
2022/04/11 04:48:27;;;;;;;26.83;14.27;;;;;;;;;;5050122;28;20486;-84
2022/04/11 04:50:54;;;;;;;24.67;13.77;;;;;;;;;;5048817;28;20057;-85
2022/04/11 04:53:20;;;;;;;25.42;13.38;;;;;;;;;;5046980;28;20049;-85
2022/04/11 04:55:46;;;;;;;26.52;13.85;;;;;;;;;;5049925;28;20071;-85
2022/04/11 04:58:13;;;;;;;35.50;13.50;;;;;;;;;;5032986;28;20043;-86
2022/04/11 05:01:00;;;;;;;25.80;13.57;;;;;;;;;;5055326;28;20068;-86
2022/04/11 05:03:26;;;;;;;23.25;13.57;;;;;;;;;;5055509;28;20029;-83
2022/04/11 05:05:52;;;;;;;21.05;13.85;;;;;;;;;;5036274;28;20052;-85
2022/04/11 05:08:18;;;;;;;28.70;14.00;;;;;;;;;;5037465;28;20040;-85
2022/04/11 05:10:44;;;;;;;28.45;14.35;;;;;;;;;;5029400;28;20020;-85
2022/04/11 05:13:10;;;;;;;23.42;13.93;;;;;;;;;;5050368;28;20039;-83
2022/04/11 05:15:36;;;;;;;23.17;14.55;;;;;;;;;;5042739;28;20056;-85
2022/04/11 05:18:02;;;;;;;32.97;14.73;;;;;;;;;;5029359;28;20013;-85
2022/04/11 05:20:29;;;;;;;31.55;16.45;;;;;;;;;;5044056;28;20049;-85
2022/04/11 05:22:55;;;;;;;24.85;15.43;;;;;;;;;;5026812;28;20030;-86
2022/04/11 05:25:21;;;;;;;33.22;17.77;;;;;;;;;;5054162;28;20269;-85
2022/04/11 05:27:51;;;;;;;33.25;16.58;;;;;;;;;;5050473;28;20036;-87
2022/04/11 05:30:17;;;;;;;27.98;16.30;;;;;;;;;;5050236;28;20029;-78
2022/04/11 05:32:43;;;;;;;24.23;15.75;;;;;;;;;;5024525;28;20141;-81
2022/04/11 05:35:10;;;;;;;27.70;15.55;;;;;;;;;;5045337;28;20050;-84
2022/04/11 05:37:36;;;;;;;30.25;15.77;;;;;;;;;;5042958;28;20103;-87
2022/04/11 05:40:03;;;;;;;22.77;15.35;;;;;;;;;;5043774;28;20048;-86
2022/04/11 05:42:29;;;;;;;32.90;15.10;;;;;;;;;;5037562;28;20037;-84
2022/04/11 05:44:55;;;;;;;26.85;14.90;;;;;;;;;;5024095;28;20163;-83
2022/04/11 05:47:21;;;;;;;24.83;15.25;;;;;;;;;;5042042;28;20049;-84
2022/04/11 05:49:47;;;;;;;32.00;15.15;;;;;;;;;;5020885;28;20057;-85
2022/04/11 05:52:15;;;;;;;31.50;14.40;;;;;;;;;;5042471;28;20121;-85
2022/04/11 05:54:41;;;;;;;30.48;14.27;;;;;;;;;;5036439;28;20037;-84
2022/04/11 05:57:07;;;;;;;28.95;13.63;;;;;;;;;;5020038;28;20120;-84
2022/04/11 05:59:34;;;;;;;24.38;13.43;;;;;;;;;;5034202;28;20088;-81
2022/04/11 06:02:00;;;;;;;19.23;13.02;;;;;;;;;;5040338;28;20044;-81
2022/04/11 06:04:26;;;;;;;24.73;13.93;;;;;;;;;;5035879;28;20037;-85
2022/04/11 06:06:52;;;;;;;26.58;13.15;;;;;;;;;;5042111;28;20025;-84
2022/04/11 06:09:18;;;;;;;22.33;12.63;;;;;;;;;;5013108;28;20124;-87
2022/04/11 06:11:44;;;;;;;18.63;13.43;;;;;;;;;;5038585;28;20028;-86
2022/04/11 06:14:10;;;;;;;19.08;12.57;;;;;;;;;;5036695;28;20048;-83
2022/04/11 06:16:36;;;;;;;21.25;13.25;;;;;;;;;;5039562;28;20091;-82
2022/04/11 06:19:02;;;;;;;20.40;12.80;;;;;;;;;;5027304;28;20071;-85
2022/04/11 06:21:28;;;;;;;24.67;13.77;;;;;;;;;;5024346;28;20616;-81
2022/04/11 06:23:54;;;;;;;20.73;12.52;;;;;;;;;;5023980;28;20033;-84
2022/04/11 06:26:21;;;;;;;27.15;13.60;;;;;;;;;;5037868;28;20120;-82
2022/04/11 06:28:47;;;;;;;17.52;12.52;;;;;;;;;;5022391;28;20037;-81
2022/04/11 06:31:16;;;;;;;28.17;13.57;;;;;;;;;;5036232;28;20075;-84
2022/04/11 06:33:42;;;;;;;18.10;12.93;;;;;;;;;;5040683;28;20024;-82
2022/04/11 06:36:11;;;;;;;19.42;13.30;;;;;;;;;;5042354;28;20021;-81
2022/04/11 06:38:37;;;;;;;19.58;13.10;;;;;;;;;;5044817;28;20033;-84
2022/04/11 06:41:03;;;;;;;24.70;14.57;;;;;;;;;;5047212;28;20046;-85
2022/04/11 06:43:29;;;;;;;22.75;15.15;;;;;;;;;;5046083;28;20029;-83
2022/04/11 06:45:55;;;;;;;21.90;13.85;;;;;;;;;;5022602;28;20461;-86
2022/04/11 06:48:22;;;;;;;22.30;14.32;;;;;;;;;;5045676;28;20031;-86
2022/04/11 06:50:50;;;;;;;23.65;14.57;;;;;;;;;;5041927;28;20022;-86
2022/04/11 06:53:17;;;;;;;21.45;14.90;;;;;;;;;;5020713;28;20026;-86
2022/04/11 06:55:47;;;;;;;22.20;13.77;;;;;;;;;;5039478;28;20089;-87
2022/04/11 06:58:13;;;;;;;22.38;14.05;;;;;;;;;;5026946;28;20029;-85
2022/04/11 07:00:39;;;;;;;25.25;13.73;;;;;;;;;;5031174;28;20060;-86
2022/04/11 07:03:05;;;;;;;22.85;13.43;;;;;;;;;;5049544;28;20051;-85
2022/04/11 07:05:31;;;;;;;19.52;12.30;;;;;;;;;;5055397;28;20067;-84
2022/04/11 07:07:57;;;;;;;17.88;11.95;;;;;;;;;;5048267;28;20041;-86
2022/04/11 07:10:24;;;;;;;18.42;12.65;;;;;;;;;;5039700;28;20077;-83
2022/04/11 07:12:50;;;;;;;18.52;12.00;;;;;;;;;;5022175;28;20044;-87
2022/04/11 07:15:16;;;;;;;23.52;12.55;;;;;;;;;;5046495;28;20114;-89
2022/04/11 07:17:42;;;;;;;20.70;12.30;;;;;;;;;;5048543;28;20025;-85
2022/04/11 07:20:09;;;;;;;21.88;13.15;;;;;;;;;;5035379;28;20102;-87
2022/04/11 07:22:35;;;;;;;18.23;12.00;;;;;;;;;;5063190;28;20072;-88
2022/04/11 07:25:02;;;;;;;18.42;12.25;;;;;;;;;;5050309;28;20048;-89
2022/04/11 07:27:28;;;;;;;16.45;10.75;;;;;;;;;;5056713;28;20079;-87
2022/04/11 07:29:54;;;;;;;18.20;12.23;;;;;;;;;;5042631;28;20041;-89
2022/04/11 07:32:20;;;;;;;16.10;11.93;;;;;;;;;;5044091;28;20047;-87
2022/04/11 07:34:47;;;;;;;16.83;11.40;;;;;;;;;;5064961;28;20059;-86
2022/04/11 07:37:13;;;;;;;15.93;11.90;;;;;;;;;;5049186;28;20090;-89
2022/04/11 07:39:39;;;;;;;21.58;11.40;;;;;;;;;;5053847;28;20052;-88
2022/04/11 07:42:05;;;;;;;19.58;12.07;;;;;;;;;;5044835;28;20037;-87
2022/04/11 07:44:32;;;;;;;17.67;11.30;;;;;;;;;;5052152;28;20103;-88
2022/04/11 07:46:58;;;;;;;17.65;11.55;;;;;;;;;;5043324;28;20033;-87
2022/04/11 07:49:24;;;;;;;21.13;12.73;;;;;;;;;;5061040;28;20508;-88
2022/04/11 07:51:50;;;;;;;14.73;10.27;;;;;;;;;;5064551;28;20032;-88
2022/04/11 07:54:16;;;;;;;23.45;11.75;;;;;;;;;;5059615;28;20017;-89
2022/04/11 07:56:42;;;;;;;13.43;9.95;;;;;;;;;;5061477;28;20390;-87
2022/04/11 07:59:08;;;;;;;14.20;9.90;;;;;;;;;;5045693;28;20239;-86
2022/04/11 08:01:34;;;;;;;14.35;8.90;;;;;;;;;;5052273;28;20024;-87
2022/04/11 08:04:00;;;;;;;17.13;10.18;;;;;;;;;;5049106;28;20040;-88
2022/04/11 08:06:27;;;;;;;19.02;9.85;;;;;;;;;;5053594;28;20036;-88
2022/04/11 08:08:53;;;;;;;20.23;10.05;;;;;;;;;;5084388;28;20482;-87
2022/04/11 08:11:19;;;;;;;17.40;9.27;;;;;;;;;;5107290;28;20032;-87
2022/04/11 08:13:45;;;;;;;13.52;8.50;;;;;;;;;;5062615;28;20164;-90
2022/04/11 08:16:12;;;;;;;15.55;8.90;;;;;;;;;;5067251;28;20484;-88
2022/04/11 08:18:38;;;;;;;12.40;8.05;;;;;;;;;;5063463;28;20040;-84
2022/04/11 08:21:05;;;;;;;20.63;8.30;;;;;;;;;;5043282;28;20036;-85
2022/04/11 08:23:31;;;;;;;12.13;7.80;;;;;;;;;;5054066;28;20035;-87
2022/04/11 08:25:57;;;;;;;12.25;7.72;;;;;;;;;;5066060;28;20029;-88
2022/04/11 08:28:24;;;;;;;15.75;8.27;;;;;;;;;;5075211;28;20037;-87
2022/04/11 08:30:50;;;;;;;11.45;8.07;;;;;;;;;;5056942;28;20110;-85
2022/04/11 08:33:16;;;;;;;12.20;7.00;;;;;;;;;;5069230;28;20039;-89
2022/04/11 08:35:42;;;;;;;14.77;7.20;;;;;;;;;;5056924;28;20483;-85
2022/04/11 08:38:08;;;;;;;17.23;6.85;;;;;;;;;;5036304;28;20029;-88
2022/04/11 08:40:35;;;;;;;11.35;7.20;;;;;;;;;;5065403;28;20474;-86
2022/04/11 08:43:02;;;;;;;10.07;5.90;;;;;;;;;;5060056;28;20056;-86
2022/04/11 08:45:29;;;;;;;12.38;6.45;;;;;;;;;;5060272;28;20055;-87
2022/04/11 08:47:56;;;;;;;9.23;5.13;;;;;;;;;;5073836;28;20048;-84
2022/04/11 08:50:25;;;;;;;8.43;4.68;;;;;;;;;;5070312;28;20543;-88
2022/04/11 08:52:52;;;;;;;10.43;4.80;;;;;;;;;;5065096;28;20119;-85
2022/04/11 08:55:18;;;;;;;7.93;4.10;;;;;;;;;;5083144;28;20035;-88
2022/04/11 08:57:44;;;;;;;10.10;4.22;;;;;;;;;;5062935;28;20025;-86
2022/04/11 09:00:12;;;;;;;9.35;4.43;;;;;;;;;;5045772;28;20047;-87
2022/04/11 09:02:38;;;;;;;10.95;4.80;;;;;;;;;;5056342;28;20032;-88
2022/04/11 09:05:05;;;;;;;6.72;3.72;;;;;;;;;;5075432;28;20343;-86
2022/04/11 09:07:47;;;;;;;10.02;4.30;;;;;;;;;;5055931;28;20067;-85
2022/04/11 09:10:17;;;;;;;6.18;4.07;;;;;;;;;;5059538;28;20036;-85
2022/04/11 09:12:51;;;;;;;8.85;4.57;;;;;;;;;;5069417;28;20061;-84
2022/04/11 09:15:17;;;;;;;7.43;3.90;;;;;;;;;;5065691;28;20035;-86
2022/04/11 09:17:44;;;;;;;5.80;3.45;;;;;;;;;;5038184;28;20033;-87
2022/04/11 09:20:10;;;;;;;10.23;4.20;;;;;;;;;;5061887;28;20021;-83
2022/04/11 09:22:36;;;;;;;8.57;4.10;;;;;;;;;;5042025;28;20178;-84
2022/04/11 09:25:09;;;;;;;11.90;4.07;;;;;;;;;;5049348;28;20079;-83
2022/04/11 09:27:35;;;;;;;9.95;4.05;;;;;;;;;;5055200;28;20512;-85
2022/04/11 09:30:01;;;;;;;8.55;4.80;;;;;;;;;;5063152;28;20028;-86
2022/04/11 09:32:27;;;;;;;7.22;4.50;;;;;;;;;;5069694;28;20148;-85
2022/04/11 09:34:54;;;;;;;11.02;4.32;;;;;;;;;;5042144;28;20055;-82
2022/04/11 09:37:23;;;;;;;7.70;4.97;;;;;;;;;;5060248;28;20026;-83
2022/04/11 09:39:56;;;;;;;11.13;4.90;;;;;;;;;;5042830;28;20032;-85
2022/04/11 09:42:30;;;;;;;11.05;4.90;;;;;;;;;;5055062;28;20067;-83
2022/04/11 09:45:00;;;;;;;9.65;5.28;;;;;;;;;;5059254;28;20056;-82
2022/04/11 09:47:26;;;;;;;10.93;5.15;;;;;;;;;;5045376;28;20119;-82
2022/04/11 09:49:52;;;;;;;11.65;5.40;;;;;;;;;;5065355;28;20037;-87
2022/04/11 09:52:18;;;;;;;11.05;4.97;;;;;;;;;;5071346;28;20040;-83
2022/04/11 09:54:45;;;;;;;7.75;5.18;;;;;;;;;;5042337;28;20029;-85
2022/04/11 09:57:12;;;;;;;9.35;5.18;;;;;;;;;;5062551;28;20352;-84
2022/04/11 09:59:41;;;;;;;12.98;5.78;;;;;;;;;;5056656;28;20043;-83
2022/04/11 10:02:12;;;;;;;9.05;5.20;;;;;;;;;;5064207;28;20135;-82
2022/04/11 10:04:38;;;;;;;12.05;5.38;;;;;;;;;;5064816;28;20044;-84
2022/04/11 10:07:04;;;;;;;8.38;5.32;;;;;;;;;;5052558;28;20059;-83
2022/04/11 10:09:31;;;;;;;10.23;5.85;;;;;;;;;;5065142;28;20528;-83
2022/04/11 10:11:57;;;;;;;12.55;6.43;;;;;;;;;;5072741;28;20123;-86
2022/04/11 10:14:24;;;;;;;11.88;6.70;;;;;;;;;;5078805;28;20016;-83
2022/04/11 10:16:55;;;;;;;9.43;5.65;;;;;;;;;;5088403;28;20511;-85
2022/04/11 10:19:26;;;;;;;13.30;6.20;;;;;;;;;;5052504;28;20025;-82
2022/04/11 10:21:54;;;;;;;8.10;6.00;;;;;;;;;;5067994;28;20021;-83
2022/04/11 10:24:34;;;;;;;11.25;6.80;;;;;;;;;;5060948;28;20025;-83
2022/04/11 10:27:17;;;;;;;11.20;6.28;;;;;;;;;;5079559;28;20011;-82
2022/04/11 10:29:43;;;;;;;12.38;7.28;;;;;;;;;;5098303;28;20028;-84
2022/04/11 10:32:13;;;;;;;11.00;6.70;;;;;;;;;;5085210;28;20145;-83
2022/04/11 10:34:52;;;;;;;11.18;7.32;;;;;;;;;;5062089;28;20029;-83
2022/04/11 10:37:20;;;;;;;13.10;7.63;;;;;;;;;;5043275;28;20112;-86
2022/04/11 10:39:46;;;;;;;10.52;6.63;;;;;;;;;;5044039;28;20056;-88
2022/04/11 10:42:12;;;;;;;11.65;7.60;;;;;;;;;;5044294;28;20025;-86
2022/04/11 10:44:45;;;;;;;13.13;7.55;;;;;;;;;;5044986;28;20040;-84
2022/04/11 10:47:11;;;;;;;12.40;7.50;;;;;;;;;;5061262;28;20083;-83
2022/04/11 10:49:58;;;;;;;12.05;7.63;;;;;;;;;;5059373;28;20037;-85
2022/04/11 10:52:31;;;;;;;13.13;7.70;;;;;;;;;;5062055;28;20033;-87
2022/04/11 10:55:08;;;;;;;13.20;7.82;;;;;;;;;;5064220;28;20028;-87
2022/04/11 10:57:36;;;;;;;15.32;8.05;;;;;;;;;;5067600;28;20009;-82
2022/04/11 11:00:06;;;;;;;14.55;7.82;;;;;;;;;;5061587;28;20029;-83
2022/04/11 11:02:54;;;;;;;9.38;6.60;;;;;;;;;;5060342;28;20055;-84
2022/04/11 11:05:26;;;;;;;12.85;6.70;;;;;;;;;;5071927;28;20024;-84
2022/04/11 11:08:11;;;;;;;12.82;6.00;;;;;;;;;;5070077;28;20036;-82
2022/04/11 11:10:46;;;;;;;12.23;6.88;;;;;;;;;;5061186;28;20103;-81
2022/04/11 11:13:28;;;;;;;11.15;6.32;;;;;;;;;;5060715;28;20043;-83
2022/04/11 11:15:58;;;;;;;9.52;6.00;;;;;;;;;;5060430;28;20047;-83
2022/04/11 11:18:24;;;;;;;11.00;5.47;;;;;;;;;;5090477;28;20009;-84
2022/04/11 11:21:00;;;;;;;9.77;5.88;;;;;;;;;;5102678;28;20493;-83
2022/04/11 11:23:30;;;;;;;9.13;5.63;;;;;;;;;;5076285;28;20047;-82
2022/04/11 11:26:06;;;;;;;9.77;5.82;;;;;;;;;;5072671;28;20488;-82
2022/04/11 11:28:33;;;;;;;13.20;6.32;;;;;;;;;;5060172;28;20112;-83
2022/04/11 11:31:04;;;;;;;14.93;6.80;;;;;;;;;;5075689;28;20021;-81
2022/04/11 11:33:30;;;;;;;12.90;7.03;;;;;;;;;;5071461;28;20283;-81
2022/04/11 11:35:56;;;;;;;11.55;5.68;;;;;;;;;;5077403;28;20088;-82
2022/04/11 11:38:24;;;;;;;8.05;5.15;;;;;;;;;;5059498;28;20477;-80
2022/04/11 11:40:54;;;;;;;8.60;5.78;;;;;;;;;;5064253;28;20056;-80
2022/04/11 11:43:23;;;;;;;11.85;5.72;;;;;;;;;;5063146;28;20029;-84
2022/04/11 11:45:49;;;;;;;11.25;6.95;;;;;;;;;;5060859;28;20038;-82
2022/04/11 11:48:23;;;;;;;11.07;7.38;;;;;;;;;;5030817;28;20044;-84
2022/04/11 11:50:50;;;;;;;10.63;6.72;;;;;;;;;;5048277;28;20025;-84
2022/04/11 11:53:16;;;;;;;10.98;5.97;;;;;;;;;;5041032;28;20133;-79
2022/04/11 11:55:58;;;;;;;9.15;5.82;;;;;;;;;;5048453;28;20067;-81
2022/04/11 11:58:37;;;;;;;10.75;4.95;;;;;;;;;;5036662;28;20055;-82
2022/04/11 12:01:04;;;;;;;12.35;5.78;;;;;;;;;;5035642;28;20068;-81
2022/04/11 12:06:25;;;;;;;10.52;6.40;;;;;;;;;;5048500;28;20044;-84
2022/04/11 12:08:57;;;;;;;21.98;6.55;;;;;;;;;;5060828;28;20031;-83
2022/04/11 12:11:28;;;;;;;13.35;6.35;;;;;;;;;;5054371;28;20120;-81
2022/04/11 12:14:00;;;;;;;9.05;5.13;;;;;;;;;;5056658;28;20028;-83
2022/04/11 12:16:29;;;;;;;12.30;5.50;;;;;;;;;;5048879;28;20057;-82
2022/04/11 12:18:56;;;;;;;9.45;5.85;;;;;;;;;;5033110;28;20040;-82
2022/04/11 12:21:32;;;;;;;11.07;6.35;;;;;;;;;;5055370;28;20539;-83
2022/04/11 12:23:58;;;;;;;8.30;5.20;;;;;;;;;;5043795;28;20103;-81
2022/04/11 12:26:53;;;;;;;12.07;5.70;;;;;;;;;;5017319;28;20045;-79
2022/04/11 12:29:19;;;;;;;10.27;6.43;;;;;;;;;;5028930;28;20041;-80
2022/04/11 12:31:58;;;;;;;11.13;5.97;;;;;;;;;;5014826;28;20124;-83
2022/04/11 12:34:38;;;;;;;11.18;6.25;;;;;;;;;;5054081;28;20300;-79
2022/04/11 12:37:05;;;;;;;9.88;5.60;;;;;;;;;;5054147;28;20005;-79
2022/04/11 12:39:32;;;;;;;8.60;6.03;;;;;;;;;;5050749;28;20048;-81
2022/04/11 12:41:58;;;;;;;10.93;6.15;;;;;;;;;;5021626;28;20071;-81
2022/04/11 12:44:37;;;;;;;10.02;5.40;;;;;;;;;;5035969;28;20010;-81
2022/04/11 12:47:04;;;;;;;9.25;5.35;;;;;;;;;;5051551;28;20045;-81
2022/04/11 12:49:43;;;;;;;10.43;4.85;;;;;;;;;;5055163;28;20021;-80
2022/04/11 12:52:09;;;;;;;10.90;6.00;;;;;;;;;;5049144;28;20032;-80
2022/04/11 12:54:38;;;;;;;14.35;5.50;;;;;;;;;;5052137;28;20036;-80
2022/04/11 12:57:04;;;;;;;8.13;5.30;;;;;;;;;;5037155;28;20013;-79
2022/04/11 12:59:36;;;;;;;18.25;6.15;;;;;;;;;;5054873;28;20151;-79
2022/04/11 13:02:12;;;;;;;13.82;5.45;;;;;;;;;;5037135;28;20040;-81
2022/04/11 13:04:40;;;;;;;14.52;5.50;;;;;;;;;;5059543;28;20036;-80
2022/04/11 13:07:06;;;;;;;12.75;5.55;;;;;;;;;;5057456;28;20032;-80
2022/04/11 13:09:33;;;;;;;9.95;5.90;;;;;;;;;;5056432;28;20120;-79
2022/04/11 13:11:59;;;;;;;11.80;6.05;;;;;;;;;;5089025;28;20382;-79
2022/04/11 13:14:25;;;;;;;9.68;5.28;;;;;;;;;;5037617;28;20037;-81
2022/04/11 13:19:35;;;;;;;10.68;5.53;;;;;;;;;;5062936;28;20090;-81
2022/04/11 13:22:02;;;;;;;11.80;5.70;;;;;;;;;;5094264;28;20043;-83
2022/04/11 13:24:29;;;;;;;10.93;5.57;;;;;;;;;;5061429;28;20058;-83
2022/04/11 13:26:55;;;;;;;9.55;5.10;;;;;;;;;;5047566;28;20036;-80
2022/04/11 13:29:21;;;;;;;10.98;5.50;;;;;;;;;;5060739;28;20576;-79
2022/04/11 13:31:47;;;;;;;11.15;5.88;;;;;;;;;;5096427;28;20111;-83
2022/04/11 13:34:13;;;;;;;12.63;5.30;;;;;;;;;;5075159;28;20036;-81
2022/04/11 13:36:39;;;;;;;9.80;5.95;;;;;;;;;;5054131;28;20139;-80
2022/04/11 13:39:06;;;;;;;11.95;5.68;;;;;;;;;;5068078;28;20016;-85
2022/04/11 13:41:34;;;;;;;10.50;6.03;;;;;;;;;;5095951;28;20072;-80
2022/04/11 13:44:01;;;;;;;10.18;6.20;;;;;;;;;;5076956;28;20108;-78
2022/04/11 13:46:28;;;;;;;13.23;5.28;;;;;;;;;;5058079;28;20053;-82
2022/04/11 13:48:54;;;;;;;11.35;5.75;;;;;;;;;;5051923;28;20037;-79
2022/04/11 13:51:24;;;;;;;10.40;5.55;;;;;;;;;;5047750;28;20036;-81
2022/04/11 13:53:50;;;;;;;13.07;6.32;;;;;;;;;;5046401;28;20974;-82
2022/04/11 13:56:16;;;;;;;11.60;6.45;;;;;;;;;;5042348;28;20029;-81
2022/04/11 13:58:42;;;;;;;15.27;6.30;;;;;;;;;;5029578;28;20053;-84
2022/04/11 14:01:08;;;;;;;12.38;6.80;;;;;;;;;;5024764;28;20065;-87
2022/04/11 14:03:36;;;;;;;14.43;6.38;;;;;;;;;;5048685;28;20041;-86
2022/04/11 14:06:02;;;;;;;12.07;6.40;;;;;;;;;;5054054;28;20050;-82
2022/04/11 14:08:28;;;;;;;11.70;5.68;;;;;;;;;;5060910;28;20469;-81
2022/04/11 14:10:54;;;;;;;12.20;6.78;;;;;;;;;;5044790;28;20063;-83
2022/04/11 14:13:22;;;;;;;16.98;6.32;;;;;;;;;;5052409;28;20021;-82
2022/04/11 14:15:48;;;;;;;12.77;6.63;;;;;;;;;;5041764;28;20110;-84
2022/04/11 14:18:14;;;;;;;14.52;6.38;;;;;;;;;;5025454;28;20029;-86
2022/04/11 14:20:41;;;;;;;11.10;6.45;;;;;;;;;;5041414;28;20396;-80
2022/04/11 14:23:08;;;;;;;14.45;6.95;;;;;;;;;;5024759;28;20463;-85
2022/04/11 14:25:34;;;;;;;9.73;5.80;;;;;;;;;;5046271;28;20013;-84
2022/04/11 14:28:00;;;;;;;13.88;7.13;;;;;;;;;;5043445;28;20029;-87
2022/04/11 14:30:26;;;;;;;10.80;6.68;;;;;;;;;;5049105;28;20435;-85
2022/04/11 14:32:52;;;;;;;12.93;8.02;;;;;;;;;;5047292;28;20081;-83
2022/04/11 14:35:18;;;;;;;13.38;7.93;;;;;;;;;;5043958;28;20068;-82
2022/04/11 14:37:46;;;;;;;11.15;7.53;;;;;;;;;;5031034;28;20028;-82